sensor_id;sensor_type;location;lat;lon;timestamp;temperature;humidity
6843;DHT22;3460;52.028;8.916;2023-05-07T00:00:22;12.20;99.90
6843;DHT22;3460;52.028;8.916;2023-05-07T00:02:49;12.20;99.90
6843;DHT22;3460;52.028;8.916;2023-05-07T00:05:16;12.10;99.90
6843;DHT22;3460;52.028;8.916;2023-05-07T00:07:42;12.00;99.90
6843;DHT22;3460;52.028;8.916;2023-05-07T00:10:10;12.00;99.90
6843;DHT22;3460;52.028;8.916;2023-05-07T00:15:07;11.90;99.90
6843;DHT22;3460;52.028;8.916;2023-05-07T00:17:34;11.80;99.90
6843;DHT22;3460;52.028;8.916;2023-05-07T00:20:01;11.80;99.90
6843;DHT22;3460;52.028;8.916;2023-05-07T00:22:28;11.80;99.90
6843;DHT22;3460;52.028;8.916;2023-05-07T00:24:55;11.70;99.90
6843;DHT22;3460;52.028;8.916;2023-05-07T00:27:23;11.70;99.90
6843;DHT22;3460;52.028;8.916;2023-05-07T00:29:51;11.70;99.90
6843;DHT22;3460;52.028;8.916;2023-05-07T00:32:18;11.70;99.90
6843;DHT22;3460;52.028;8.916;2023-05-07T00:34:45;11.70;99.90
6843;DHT22;3460;52.028;8.916;2023-05-07T00:37:12;11.60;99.90
6843;DHT22;3460;52.028;8.916;2023-05-07T00:39:38;11.60;99.90
6843;DHT22;3460;52.028;8.916;2023-05-07T00:42:05;11.60;99.90
6843;DHT22;3460;52.028;8.916;2023-05-07T00:44:33;11.60;99.90
6843;DHT22;3460;52.028;8.916;2023-05-07T00:47:03;11.60;99.90
6843;DHT22;3460;52.028;8.916;2023-05-07T00:49:37;11.60;99.90
6843;DHT22;3460;52.028;8.916;2023-05-07T00:52:06;11.60;99.90
6843;DHT22;3460;52.028;8.916;2023-05-07T00:54:34;11.60;99.90
6843;DHT22;3460;52.028;8.916;2023-05-07T00:57:02;11.60;99.90
6843;DHT22;3460;52.028;8.916;2023-05-07T00:59:30;11.50;99.90
6843;DHT22;3460;52.028;8.916;2023-05-07T01:01:57;11.50;99.90
6843;DHT22;3460;52.028;8.916;2023-05-07T01:04:26;11.50;99.90
6843;DHT22;3460;52.028;8.916;2023-05-07T01:06:53;11.50;99.90
6843;DHT22;3460;52.028;8.916;2023-05-07T01:09:21;11.50;99.90
6843;DHT22;3460;52.028;8.916;2023-05-07T01:11:49;11.50;99.90
6843;DHT22;3460;52.028;8.916;2023-05-07T01:14:17;11.60;99.90
6843;DHT22;3460;52.028;8.916;2023-05-07T01:16:44;11.50;99.90
6843;DHT22;3460;52.028;8.916;2023-05-07T01:19:12;11.50;99.90
6843;DHT22;3460;52.028;8.916;2023-05-07T01:21:46;11.50;99.90
6843;DHT22;3460;52.028;8.916;2023-05-07T01:24:15;11.50;99.90
6843;DHT22;3460;52.028;8.916;2023-05-07T01:26:42;11.40;99.90
6843;DHT22;3460;52.028;8.916;2023-05-07T01:29:09;11.40;99.90
6843;DHT22;3460;52.028;8.916;2023-05-07T01:31:37;11.40;99.90
6843;DHT22;3460;52.028;8.916;2023-05-07T01:34:05;11.30;99.90
6843;DHT22;3460;52.028;8.916;2023-05-07T01:36:34;11.30;99.90
6843;DHT22;3460;52.028;8.916;2023-05-07T01:39:02;11.30;99.90
6843;DHT22;3460;52.028;8.916;2023-05-07T01:41:31;11.30;99.90
6843;DHT22;3460;52.028;8.916;2023-05-07T01:43:58;11.30;99.90
6843;DHT22;3460;52.028;8.916;2023-05-07T01:46:26;11.30;99.90
6843;DHT22;3460;52.028;8.916;2023-05-07T01:48:53;11.30;99.90
6843;DHT22;3460;52.028;8.916;2023-05-07T01:51:20;11.30;99.90
6843;DHT22;3460;52.028;8.916;2023-05-07T01:53:48;11.30;99.90
6843;DHT22;3460;52.028;8.916;2023-05-07T01:56:16;11.30;99.90
6843;DHT22;3460;52.028;8.916;2023-05-07T01:58:46;11.30;99.90
6843;DHT22;3460;52.028;8.916;2023-05-07T02:01:13;11.30;99.90
6843;DHT22;3460;52.028;8.916;2023-05-07T02:03:40;11.30;99.90
6843;DHT22;3460;52.028;8.916;2023-05-07T02:06:07;11.20;99.90
6843;DHT22;3460;52.028;8.916;2023-05-07T02:08:34;11.30;99.90
6843;DHT22;3460;52.028;8.916;2023-05-07T02:11:01;11.30;99.90
6843;DHT22;3460;52.028;8.916;2023-05-07T02:13:29;11.20;99.90
6843;DHT22;3460;52.028;8.916;2023-05-07T02:15:57;11.20;99.90
6843;DHT22;3460;52.028;8.916;2023-05-07T02:18:24;11.20;99.90
6843;DHT22;3460;52.028;8.916;2023-05-07T02:20:51;11.20;99.90
6843;DHT22;3460;52.028;8.916;2023-05-07T02:23:18;11.20;99.90
6843;DHT22;3460;52.028;8.916;2023-05-07T02:25:45;11.20;99.90
6843;DHT22;3460;52.028;8.916;2023-05-07T02:28:12;11.20;99.90
6843;DHT22;3460;52.028;8.916;2023-05-07T02:30:39;11.20;99.90
6843;DHT22;3460;52.028;8.916;2023-05-07T02:33:07;11.20;99.90
6843;DHT22;3460;52.028;8.916;2023-05-07T02:35:34;11.20;99.90
6843;DHT22;3460;52.028;8.916;2023-05-07T02:38:01;11.20;99.90
6843;DHT22;3460;52.028;8.916;2023-05-07T02:40:28;11.20;99.90
6843;DHT22;3460;52.028;8.916;2023-05-07T02:42:55;11.10;99.90
6843;DHT22;3460;52.028;8.916;2023-05-07T02:45:22;11.10;99.90
6843;DHT22;3460;52.028;8.916;2023-05-07T02:47:49;11.10;99.90
6843;DHT22;3460;52.028;8.916;2023-05-07T02:50:17;11.10;99.90
6843;DHT22;3460;52.028;8.916;2023-05-07T02:52:44;11.00;99.90
6843;DHT22;3460;52.028;8.916;2023-05-07T02:55:10;11.00;99.90
6843;DHT22;3460;52.028;8.916;2023-05-07T02:57:37;11.00;99.90
6843;DHT22;3460;52.028;8.916;2023-05-07T03:00:12;11.10;99.90
6843;DHT22;3460;52.028;8.916;2023-05-07T03:02:39;11.00;99.90
6843;DHT22;3460;52.028;8.916;2023-05-07T03:05:06;11.00;99.90
6843;DHT22;3460;52.028;8.916;2023-05-07T03:07:35;11.00;99.90
6843;DHT22;3460;52.028;8.916;2023-05-07T03:10:03;11.00;99.90
6843;DHT22;3460;52.028;8.916;2023-05-07T03:12:30;11.00;99.90
6843;DHT22;3460;52.028;8.916;2023-05-07T03:14:57;10.90;99.90
6843;DHT22;3460;52.028;8.916;2023-05-07T03:17:24;10.90;99.90
6843;DHT22;3460;52.028;8.916;2023-05-07T03:19:51;10.90;99.90
6843;DHT22;3460;52.028;8.916;2023-05-07T03:22:18;10.90;99.90
6843;DHT22;3460;52.028;8.916;2023-05-07T03:24:46;10.90;99.90
6843;DHT22;3460;52.028;8.916;2023-05-07T03:27:12;10.80;99.90
6843;DHT22;3460;52.028;8.916;2023-05-07T03:29:39;10.80;99.90
6843;DHT22;3460;52.028;8.916;2023-05-07T03:32:06;10.80;99.90
6843;DHT22;3460;52.028;8.916;2023-05-07T03:34:33;10.80;99.90
6843;DHT22;3460;52.028;8.916;2023-05-07T03:37:00;10.80;99.90
6843;DHT22;3460;52.028;8.916;2023-05-07T03:39:27;10.80;99.90
6843;DHT22;3460;52.028;8.916;2023-05-07T03:41:55;10.70;99.90
6843;DHT22;3460;52.028;8.916;2023-05-07T03:44:22;10.70;99.90
6843;DHT22;3460;52.028;8.916;2023-05-07T03:46:49;10.70;99.90
6843;DHT22;3460;52.028;8.916;2023-05-07T03:49:16;10.60;99.90
6843;DHT22;3460;52.028;8.916;2023-05-07T03:51:43;10.60;99.90
6843;DHT22;3460;52.028;8.916;2023-05-07T03:54:09;10.60;99.90
6843;DHT22;3460;52.028;8.916;2023-05-07T03:56:36;10.60;99.90
6843;DHT22;3460;52.028;8.916;2023-05-07T03:59:04;10.60;99.90
6843;DHT22;3460;52.028;8.916;2023-05-07T04:01:31;10.60;99.90
6843;DHT22;3460;52.028;8.916;2023-05-07T04:03:58;10.60;99.90
6843;DHT22;3460;52.028;8.916;2023-05-07T04:06:25;10.60;99.90
6843;DHT22;3460;52.028;8.916;2023-05-07T04:08:51;10.60;99.90
6843;DHT22;3460;52.028;8.916;2023-05-07T04:11:18;10.60;99.90
6843;DHT22;3460;52.028;8.916;2023-05-07T04:13:45;10.60;99.90
6843;DHT22;3460;52.028;8.916;2023-05-07T04:16:14;10.60;99.90
6843;DHT22;3460;52.028;8.916;2023-05-07T04:18:41;10.60;99.90
6843;DHT22;3460;52.028;8.916;2023-05-07T04:21:14;10.70;99.90
6843;DHT22;3460;52.028;8.916;2023-05-07T04:23:41;10.70;99.90
6843;DHT22;3460;52.028;8.916;2023-05-07T04:26:08;10.70;99.90
6843;DHT22;3460;52.028;8.916;2023-05-07T04:28:35;10.70;99.90
6843;DHT22;3460;52.028;8.916;2023-05-07T04:31:02;10.70;99.90
6843;DHT22;3460;52.028;8.916;2023-05-07T04:33:30;10.70;99.90
6843;DHT22;3460;52.028;8.916;2023-05-07T04:35:57;10.80;99.90
6843;DHT22;3460;52.028;8.916;2023-05-07T04:38:28;10.80;99.90
6843;DHT22;3460;52.028;8.916;2023-05-07T04:40:55;10.80;99.90
6843;DHT22;3460;52.028;8.916;2023-05-07T04:43:22;10.80;99.90
6843;DHT22;3460;52.028;8.916;2023-05-07T04:45:50;10.80;99.90
6843;DHT22;3460;52.028;8.916;2023-05-07T04:48:16;10.80;99.90
6843;DHT22;3460;52.028;8.916;2023-05-07T04:50:47;10.80;99.90
6843;DHT22;3460;52.028;8.916;2023-05-07T04:53:14;10.80;99.90
6843;DHT22;3460;52.028;8.916;2023-05-07T04:55:41;10.80;99.90
6843;DHT22;3460;52.028;8.916;2023-05-07T04:58:08;10.80;99.90
6843;DHT22;3460;52.028;8.916;2023-05-07T05:00:35;10.80;99.90
6843;DHT22;3460;52.028;8.916;2023-05-07T05:03:02;10.80;99.90
6843;DHT22;3460;52.028;8.916;2023-05-07T05:05:28;10.80;99.90
6843;DHT22;3460;52.028;8.916;2023-05-07T05:07:57;10.80;99.90
6843;DHT22;3460;52.028;8.916;2023-05-07T05:10:23;10.80;99.90
6843;DHT22;3460;52.028;8.916;2023-05-07T05:12:50;10.80;99.90
6843;DHT22;3460;52.028;8.916;2023-05-07T05:15:17;10.80;99.90
6843;DHT22;3460;52.028;8.916;2023-05-07T05:17:44;10.80;99.90
6843;DHT22;3460;52.028;8.916;2023-05-07T05:20:11;10.80;99.90
6843;DHT22;3460;52.028;8.916;2023-05-07T05:22:38;10.80;99.90
6843;DHT22;3460;52.028;8.916;2023-05-07T05:25:07;10.90;99.90
6843;DHT22;3460;52.028;8.916;2023-05-07T05:27:34;10.90;99.90
6843;DHT22;3460;52.028;8.916;2023-05-07T05:30:01;10.90;99.90
6843;DHT22;3460;52.028;8.916;2023-05-07T05:32:28;10.90;99.90
6843;DHT22;3460;52.028;8.916;2023-05-07T05:34:55;11.00;99.90
6843;DHT22;3460;52.028;8.916;2023-05-07T05:37:22;11.00;99.90
6843;DHT22;3460;52.028;8.916;2023-05-07T05:39:48;11.00;99.90
6843;DHT22;3460;52.028;8.916;2023-05-07T05:42:17;11.10;99.90
6843;DHT22;3460;52.028;8.916;2023-05-07T05:44:43;11.10;99.90
6843;DHT22;3460;52.028;8.916;2023-05-07T05:47:10;11.20;99.90
6843;DHT22;3460;52.028;8.916;2023-05-07T05:49:37;11.20;99.90
6843;DHT22;3460;52.028;8.916;2023-05-07T05:52:04;11.20;99.90
6843;DHT22;3460;52.028;8.916;2023-05-07T05:54:31;11.20;99.90
6843;DHT22;3460;52.028;8.916;2023-05-07T05:56:58;11.20;99.90
6843;DHT22;3460;52.028;8.916;2023-05-07T05:59:26;11.20;99.90
6843;DHT22;3460;52.028;8.916;2023-05-07T06:01:53;11.20;99.90
6843;DHT22;3460;52.028;8.916;2023-05-07T06:04:19;11.20;99.90
6843;DHT22;3460;52.028;8.916;2023-05-07T06:06:46;11.20;99.90
6843;DHT22;3460;52.028;8.916;2023-05-07T06:09:13;11.20;99.90
6843;DHT22;3460;52.028;8.916;2023-05-07T06:11:40;11.20;99.90
6843;DHT22;3460;52.028;8.916;2023-05-07T06:14:08;11.30;99.90
6843;DHT22;3460;52.028;8.916;2023-05-07T06:16:37;11.30;99.90
6843;DHT22;3460;52.028;8.916;2023-05-07T06:19:07;11.30;99.90
6843;DHT22;3460;52.028;8.916;2023-05-07T06:21:34;11.30;99.90
6843;DHT22;3460;52.028;8.916;2023-05-07T06:24:01;11.30;99.90
6843;DHT22;3460;52.028;8.916;2023-05-07T06:26:28;11.30;99.90
6843;DHT22;3460;52.028;8.916;2023-05-07T06:28:54;11.30;99.90
6843;DHT22;3460;52.028;8.916;2023-05-07T06:31:21;11.40;99.90
6843;DHT22;3460;52.028;8.916;2023-05-07T06:33:49;11.40;99.90
6843;DHT22;3460;52.028;8.916;2023-05-07T06:36:16;11.40;99.90
6843;DHT22;3460;52.028;8.916;2023-05-07T06:38:43;11.50;99.90
6843;DHT22;3460;52.028;8.916;2023-05-07T06:41:10;11.50;99.90
6843;DHT22;3460;52.028;8.916;2023-05-07T06:43:37;11.50;99.90
6843;DHT22;3460;52.028;8.916;2023-05-07T06:46:04;11.50;99.90
6843;DHT22;3460;52.028;8.916;2023-05-07T06:48:30;11.40;99.90
6843;DHT22;3460;52.028;8.916;2023-05-07T06:50:59;11.50;99.90
6843;DHT22;3460;52.028;8.916;2023-05-07T06:53:25;11.50;99.90
6843;DHT22;3460;52.028;8.916;2023-05-07T06:55:53;11.60;99.90
6843;DHT22;3460;52.028;8.916;2023-05-07T06:58:20;11.60;99.90
6843;DHT22;3460;52.028;8.916;2023-05-07T07:00:47;11.60;99.90
6843;DHT22;3460;52.028;8.916;2023-05-07T07:03:14;11.60;99.90
6843;DHT22;3460;52.028;8.916;2023-05-07T07:05:41;11.70;99.90
6843;DHT22;3460;52.028;8.916;2023-05-07T07:08:10;11.80;99.90
6843;DHT22;3460;52.028;8.916;2023-05-07T07:10:36;11.90;99.90
6843;DHT22;3460;52.028;8.916;2023-05-07T07:13:03;11.90;99.90
6843;DHT22;3460;52.028;8.916;2023-05-07T07:15:30;12.00;99.90
6843;DHT22;3460;52.028;8.916;2023-05-07T07:17:57;12.00;99.90
6843;DHT22;3460;52.028;8.916;2023-05-07T07:20:24;12.10;99.90
6843;DHT22;3460;52.028;8.916;2023-05-07T07:22:51;12.10;99.90
6843;DHT22;3460;52.028;8.916;2023-05-07T07:25:19;12.00;99.90
6843;DHT22;3460;52.028;8.916;2023-05-07T07:27:46;12.10;99.90
6843;DHT22;3460;52.028;8.916;2023-05-07T07:30:13;12.10;99.90
6843;DHT22;3460;52.028;8.916;2023-05-07T07:32:40;12.10;99.90
6843;DHT22;3460;52.028;8.916;2023-05-07T07:35:07;12.10;99.90
6843;DHT22;3460;52.028;8.916;2023-05-07T07:37:34;12.20;99.90
6843;DHT22;3460;52.028;8.916;2023-05-07T07:40:01;12.30;99.90
6843;DHT22;3460;52.028;8.916;2023-05-07T07:42:30;12.30;99.90
6843;DHT22;3460;52.028;8.916;2023-05-07T07:44:57;12.30;99.90
6843;DHT22;3460;52.028;8.916;2023-05-07T07:47:23;12.30;99.90
6843;DHT22;3460;52.028;8.916;2023-05-07T07:49:50;12.30;99.90
6843;DHT22;3460;52.028;8.916;2023-05-07T07:52:18;12.40;99.90
6843;DHT22;3460;52.028;8.916;2023-05-07T07:54:45;12.40;99.90
6843;DHT22;3460;52.028;8.916;2023-05-07T07:57:12;12.40;99.90
6843;DHT22;3460;52.028;8.916;2023-05-07T07:59:40;12.40;99.90
6843;DHT22;3460;52.028;8.916;2023-05-07T08:02:08;12.40;99.90
6843;DHT22;3460;52.028;8.916;2023-05-07T08:04:35;12.40;99.90
6843;DHT22;3460;52.028;8.916;2023-05-07T08:07:02;12.40;99.90
6843;DHT22;3460;52.028;8.916;2023-05-07T08:09:29;12.40;99.90
6843;DHT22;3460;52.028;8.916;2023-05-07T08:11:56;12.40;99.90
6843;DHT22;3460;52.028;8.916;2023-05-07T08:14:23;12.50;99.90
6843;DHT22;3460;52.028;8.916;2023-05-07T08:16:51;12.60;99.90
6843;DHT22;3460;52.028;8.916;2023-05-07T08:19:18;12.70;99.90
6843;DHT22;3460;52.028;8.916;2023-05-07T08:21:45;12.70;99.90
6843;DHT22;3460;52.028;8.916;2023-05-07T08:24:13;12.80;99.90
6843;DHT22;3460;52.028;8.916;2023-05-07T08:26:40;12.90;99.90
6843;DHT22;3460;52.028;8.916;2023-05-07T08:29:07;13.10;99.90
6843;DHT22;3460;52.028;8.916;2023-05-07T08:31:33;13.00;99.90
6843;DHT22;3460;52.028;8.916;2023-05-07T08:34:03;13.10;99.90
6843;DHT22;3460;52.028;8.916;2023-05-07T08:36:30;13.10;99.90
6843;DHT22;3460;52.028;8.916;2023-05-07T08:38:56;13.10;99.90
6843;DHT22;3460;52.028;8.916;2023-05-07T08:41:23;13.00;99.90
6843;DHT22;3460;52.028;8.916;2023-05-07T08:43:51;13.10;99.90
6843;DHT22;3460;52.028;8.916;2023-05-07T08:46:19;13.10;99.90
6843;DHT22;3460;52.028;8.916;2023-05-07T08:48:48;13.20;99.90
6843;DHT22;3460;52.028;8.916;2023-05-07T08:51:18;13.30;99.90
6843;DHT22;3460;52.028;8.916;2023-05-07T08:53:45;13.50;99.90
6843;DHT22;3460;52.028;8.916;2023-05-07T08:56:14;13.50;99.90
6843;DHT22;3460;52.028;8.916;2023-05-07T08:58:41;13.30;99.90
6843;DHT22;3460;52.028;8.916;2023-05-07T09:01:09;13.40;99.90
6843;DHT22;3460;52.028;8.916;2023-05-07T09:03:39;13.30;99.90
6843;DHT22;3460;52.028;8.916;2023-05-07T09:06:06;13.30;99.90
6843;DHT22;3460;52.028;8.916;2023-05-07T09:08:35;13.40;99.90
6843;DHT22;3460;52.028;8.916;2023-05-07T09:11:03;13.40;99.90
6843;DHT22;3460;52.028;8.916;2023-05-07T09:13:30;13.60;99.90
6843;DHT22;3460;52.028;8.916;2023-05-07T09:15:56;13.70;99.90
6843;DHT22;3460;52.028;8.916;2023-05-07T09:18:24;13.70;99.90
6843;DHT22;3460;52.028;8.916;2023-05-07T09:20:51;13.60;99.90
6843;DHT22;3460;52.028;8.916;2023-05-07T09:23:17;13.70;99.90
6843;DHT22;3460;52.028;8.916;2023-05-07T09:25:46;13.70;99.90
6843;DHT22;3460;52.028;8.916;2023-05-07T09:28:12;13.80;99.90
6843;DHT22;3460;52.028;8.916;2023-05-07T09:30:39;13.80;99.90
6843;DHT22;3460;52.028;8.916;2023-05-07T09:33:06;13.80;99.90
6843;DHT22;3460;52.028;8.916;2023-05-07T09:35:33;13.70;99.90
6843;DHT22;3460;52.028;8.916;2023-05-07T09:38:01;13.80;99.90
6843;DHT22;3460;52.028;8.916;2023-05-07T09:40:29;13.80;99.90
6843;DHT22;3460;52.028;8.916;2023-05-07T09:43:08;13.80;99.90
6843;DHT22;3460;52.028;8.916;2023-05-07T09:45:36;13.90;99.90
6843;DHT22;3460;52.028;8.916;2023-05-07T09:48:05;13.90;99.90
6843;DHT22;3460;52.028;8.916;2023-05-07T09:50:36;14.10;99.90
6843;DHT22;3460;52.028;8.916;2023-05-07T09:53:04;13.90;99.90
6843;DHT22;3460;52.028;8.916;2023-05-07T09:55:31;14.00;99.90
6843;DHT22;3460;52.028;8.916;2023-05-07T09:57:59;14.10;99.90
6843;DHT22;3460;52.028;8.916;2023-05-07T10:00:28;14.00;99.90
6843;DHT22;3460;52.028;8.916;2023-05-07T10:02:56;14.10;99.90
6843;DHT22;3460;52.028;8.916;2023-05-07T10:05:24;14.20;99.90
6843;DHT22;3460;52.028;8.916;2023-05-07T10:07:52;14.30;99.90
6843;DHT22;3460;52.028;8.916;2023-05-07T10:10:20;14.30;99.90
6843;DHT22;3460;52.028;8.916;2023-05-07T10:12:47;14.40;99.90
6843;DHT22;3460;52.028;8.916;2023-05-07T10:15:16;14.50;99.90
6843;DHT22;3460;52.028;8.916;2023-05-07T10:17:44;14.50;99.90
6843;DHT22;3460;52.028;8.916;2023-05-07T10:20:11;14.70;99.90
6843;DHT22;3460;52.028;8.916;2023-05-07T10:22:40;14.70;99.90
6843;DHT22;3460;52.028;8.916;2023-05-07T10:25:16;14.90;99.90
6843;DHT22;3460;52.028;8.916;2023-05-07T10:27:45;15.00;99.90
6843;DHT22;3460;52.028;8.916;2023-05-07T10:30:25;15.00;99.90
6843;DHT22;3460;52.028;8.916;2023-05-07T10:32:55;14.90;99.90
6843;DHT22;3460;52.028;8.916;2023-05-07T10:35:26;15.00;99.90
6843;DHT22;3460;52.028;8.916;2023-05-07T10:37:54;14.90;99.90
6843;DHT22;3460;52.028;8.916;2023-05-07T10:40:21;14.80;99.90
6843;DHT22;3460;52.028;8.916;2023-05-07T10:42:56;14.90;99.90
6843;DHT22;3460;52.028;8.916;2023-05-07T10:45:25;15.20;99.90
6843;DHT22;3460;52.028;8.916;2023-05-07T10:48:09;15.20;99.90
6843;DHT22;3460;52.028;8.916;2023-05-07T10:50:36;15.10;99.90
6843;DHT22;3460;52.028;8.916;2023-05-07T10:53:22;14.90;99.90
6843;DHT22;3460;52.028;8.916;2023-05-07T10:56:24;14.80;99.90
6843;DHT22;3460;52.028;8.916;2023-05-07T10:58:53;15.00;99.90
6843;DHT22;3460;52.028;8.916;2023-05-07T11:01:51;15.00;99.90
6843;DHT22;3460;52.028;8.916;2023-05-07T11:04:19;15.10;99.90
6843;DHT22;3460;52.028;8.916;2023-05-07T11:07:24;15.10;99.90
6843;DHT22;3460;52.028;8.916;2023-05-07T11:09:59;15.10;99.90
6843;DHT22;3460;52.028;8.916;2023-05-07T11:12:49;15.40;99.90
6843;DHT22;3460;52.028;8.916;2023-05-07T11:15:34;15.60;99.90
6843;DHT22;3460;52.028;8.916;2023-05-07T11:18:03;15.60;99.90
6843;DHT22;3460;52.028;8.916;2023-05-07T11:20:49;15.10;99.90
6843;DHT22;3460;52.028;8.916;2023-05-07T11:26:17;15.00;99.90
6843;DHT22;3460;52.028;8.916;2023-05-07T11:28:44;14.90;99.90
6843;DHT22;3460;52.028;8.916;2023-05-07T11:31:11;15.00;99.90
6843;DHT22;3460;52.028;8.916;2023-05-07T11:33:39;15.00;99.90
6843;DHT22;3460;52.028;8.916;2023-05-07T11:36:08;15.00;99.90
6843;DHT22;3460;52.028;8.916;2023-05-07T11:38:35;15.30;99.90
6843;DHT22;3460;52.028;8.916;2023-05-07T11:41:03;15.70;99.90
6843;DHT22;3460;52.028;8.916;2023-05-07T11:43:31;15.90;99.90
6843;DHT22;3460;52.028;8.916;2023-05-07T11:46:06;16.00;99.90
6843;DHT22;3460;52.028;8.916;2023-05-07T11:48:33;16.10;99.90
6843;DHT22;3460;52.028;8.916;2023-05-07T11:51:03;16.30;99.90
6843;DHT22;3460;52.028;8.916;2023-05-07T11:53:36;16.40;99.90
6843;DHT22;3460;52.028;8.916;2023-05-07T11:56:06;16.10;99.90
6843;DHT22;3460;52.028;8.916;2023-05-07T11:58:33;16.10;99.90
6843;DHT22;3460;52.028;8.916;2023-05-07T12:01:00;15.80;99.90
6843;DHT22;3460;52.028;8.916;2023-05-07T12:03:27;15.70;99.90
6843;DHT22;3460;52.028;8.916;2023-05-07T12:05:54;15.60;99.90
6843;DHT22;3460;52.028;8.916;2023-05-07T12:08:22;15.70;99.90
6843;DHT22;3460;52.028;8.916;2023-05-07T12:10:50;15.70;99.90
6843;DHT22;3460;52.028;8.916;2023-05-07T12:13:19;15.90;99.90
6843;DHT22;3460;52.028;8.916;2023-05-07T12:15:46;15.90;99.90
6843;DHT22;3460;52.028;8.916;2023-05-07T12:18:13;15.90;99.90
6843;DHT22;3460;52.028;8.916;2023-05-07T12:20:40;15.80;99.90
6843;DHT22;3460;52.028;8.916;2023-05-07T12:23:07;15.80;99.90
6843;DHT22;3460;52.028;8.916;2023-05-07T12:25:36;15.60;99.90
6843;DHT22;3460;52.028;8.916;2023-05-07T12:28:04;15.40;99.90
6843;DHT22;3460;52.028;8.916;2023-05-07T12:30:31;15.50;99.90
6843;DHT22;3460;52.028;8.916;2023-05-07T12:32:58;15.60;99.90
6843;DHT22;3460;52.028;8.916;2023-05-07T12:35:28;15.80;99.90
6843;DHT22;3460;52.028;8.916;2023-05-07T12:37:55;15.80;99.90
6843;DHT22;3460;52.028;8.916;2023-05-07T12:40:24;15.80;99.90
6843;DHT22;3460;52.028;8.916;2023-05-07T12:42:54;15.70;99.90
6843;DHT22;3460;52.028;8.916;2023-05-07T12:45:21;15.70;99.90
6843;DHT22;3460;52.028;8.916;2023-05-07T12:47:48;15.70;99.90
6843;DHT22;3460;52.028;8.916;2023-05-07T12:50:15;15.60;99.90
6843;DHT22;3460;52.028;8.916;2023-05-07T12:52:43;15.40;99.90
6843;DHT22;3460;52.028;8.916;2023-05-07T12:55:14;15.50;99.90
6843;DHT22;3460;52.028;8.916;2023-05-07T12:57:43;15.60;99.90
6843;DHT22;3460;52.028;8.916;2023-05-07T13:00:12;15.60;99.90
6843;DHT22;3460;52.028;8.916;2023-05-07T13:02:40;15.70;99.90
6843;DHT22;3460;52.028;8.916;2023-05-07T13:05:09;15.80;99.90
6843;DHT22;3460;52.028;8.916;2023-05-07T13:07:36;15.70;99.90
6843;DHT22;3460;52.028;8.916;2023-05-07T13:10:04;15.70;99.90
6843;DHT22;3460;52.028;8.916;2023-05-07T13:12:31;15.70;99.90
6843;DHT22;3460;52.028;8.916;2023-05-07T13:14:58;15.60;99.90
6843;DHT22;3460;52.028;8.916;2023-05-07T13:17:26;15.70;99.90
6843;DHT22;3460;52.028;8.916;2023-05-07T13:19:53;15.70;99.90
6843;DHT22;3460;52.028;8.916;2023-05-07T13:22:20;15.90;99.90
6843;DHT22;3460;52.028;8.916;2023-05-07T13:24:47;16.10;99.90
6843;DHT22;3460;52.028;8.916;2023-05-07T13:27:14;16.00;99.90
6843;DHT22;3460;52.028;8.916;2023-05-07T13:29:40;16.00;99.90
6843;DHT22;3460;52.028;8.916;2023-05-07T13:32:07;16.20;99.90
6843;DHT22;3460;52.028;8.916;2023-05-07T13:34:35;16.20;99.90
6843;DHT22;3460;52.028;8.916;2023-05-07T13:37:02;16.20;99.90
6843;DHT22;3460;52.028;8.916;2023-05-07T13:39:29;16.00;99.90
6843;DHT22;3460;52.028;8.916;2023-05-07T13:41:56;16.00;99.90
6843;DHT22;3460;52.028;8.916;2023-05-07T13:44:23;16.10;99.90
6843;DHT22;3460;52.028;8.916;2023-05-07T13:46:49;16.20;99.90
6843;DHT22;3460;52.028;8.916;2023-05-07T13:49:16;16.20;99.90
6843;DHT22;3460;52.028;8.916;2023-05-07T13:51:44;16.10;99.90
6843;DHT22;3460;52.028;8.916;2023-05-07T13:54:11;16.30;99.90
6843;DHT22;3460;52.028;8.916;2023-05-07T13:56:38;16.40;99.90
6843;DHT22;3460;52.028;8.916;2023-05-07T13:59:05;16.30;99.90
6843;DHT22;3460;52.028;8.916;2023-05-07T14:01:32;16.20;99.90
6843;DHT22;3460;52.028;8.916;2023-05-07T14:03:59;16.30;99.90
6843;DHT22;3460;52.028;8.916;2023-05-07T14:06:26;16.20;99.90
6843;DHT22;3460;52.028;8.916;2023-05-07T14:08:54;16.10;99.90
6843;DHT22;3460;52.028;8.916;2023-05-07T14:11:23;16.10;99.90
6843;DHT22;3460;52.028;8.916;2023-05-07T14:13:50;16.20;99.90
6843;DHT22;3460;52.028;8.916;2023-05-07T14:16:17;16.10;99.90
6843;DHT22;3460;52.028;8.916;2023-05-07T14:18:43;16.20;99.90
6843;DHT22;3460;52.028;8.916;2023-05-07T14:21:10;16.30;99.90
6843;DHT22;3460;52.028;8.916;2023-05-07T14:23:37;16.40;99.90
6843;DHT22;3460;52.028;8.916;2023-05-07T14:26:05;16.60;99.90
6843;DHT22;3460;52.028;8.916;2023-05-07T14:28:32;16.60;99.90
6843;DHT22;3460;52.028;8.916;2023-05-07T14:30:59;16.70;99.90
6843;DHT22;3460;52.028;8.916;2023-05-07T14:33:26;16.80;99.90
6843;DHT22;3460;52.028;8.916;2023-05-07T14:35:53;16.80;99.90
6843;DHT22;3460;52.028;8.916;2023-05-07T14:38:20;16.70;99.90
6843;DHT22;3460;52.028;8.916;2023-05-07T14:40:47;16.60;99.90
6843;DHT22;3460;52.028;8.916;2023-05-07T14:43:15;16.60;99.90
6843;DHT22;3460;52.028;8.916;2023-05-07T14:45:42;16.50;99.90
6843;DHT22;3460;52.028;8.916;2023-05-07T14:48:09;16.70;99.90
6843;DHT22;3460;52.028;8.916;2023-05-07T14:50:40;16.70;99.90
6843;DHT22;3460;52.028;8.916;2023-05-07T14:53:07;16.80;99.90
6843;DHT22;3460;52.028;8.916;2023-05-07T14:55:34;16.80;99.90
6843;DHT22;3460;52.028;8.916;2023-05-07T14:58:01;16.80;99.90
6843;DHT22;3460;52.028;8.916;2023-05-07T15:00:29;16.70;99.90
6843;DHT22;3460;52.028;8.916;2023-05-07T15:03:05;16.60;99.90
6843;DHT22;3460;52.028;8.916;2023-05-07T15:05:32;16.60;99.90
6843;DHT22;3460;52.028;8.916;2023-05-07T15:07:59;16.50;99.90
6843;DHT22;3460;52.028;8.916;2023-05-07T15:10:27;16.50;99.90
6843;DHT22;3460;52.028;8.916;2023-05-07T15:12:53;16.40;99.90
6843;DHT22;3460;52.028;8.916;2023-05-07T15:15:20;16.50;99.90
6843;DHT22;3460;52.028;8.916;2023-05-07T15:17:49;16.60;99.90
6843;DHT22;3460;52.028;8.916;2023-05-07T15:20:15;16.70;99.90
6843;DHT22;3460;52.028;8.916;2023-05-07T15:22:43;16.80;99.90
6843;DHT22;3460;52.028;8.916;2023-05-07T15:25:10;16.80;99.90
6843;DHT22;3460;52.028;8.916;2023-05-07T15:27:36;16.70;99.90
6843;DHT22;3460;52.028;8.916;2023-05-07T15:30:05;16.60;99.90
6843;DHT22;3460;52.028;8.916;2023-05-07T15:32:32;16.50;99.90
6843;DHT22;3460;52.028;8.916;2023-05-07T15:35:00;16.50;99.90
6843;DHT22;3460;52.028;8.916;2023-05-07T15:37:27;16.50;99.90
6843;DHT22;3460;52.028;8.916;2023-05-07T15:39:53;16.50;99.90
6843;DHT22;3460;52.028;8.916;2023-05-07T15:42:20;16.50;99.90
6843;DHT22;3460;52.028;8.916;2023-05-07T15:44:47;16.50;99.90
6843;DHT22;3460;52.028;8.916;2023-05-07T15:47:14;16.50;99.90
6843;DHT22;3460;52.028;8.916;2023-05-07T15:49:41;16.50;99.90
6843;DHT22;3460;52.028;8.916;2023-05-07T15:52:10;16.50;99.90
6843;DHT22;3460;52.028;8.916;2023-05-07T15:54:39;16.60;99.90
6843;DHT22;3460;52.028;8.916;2023-05-07T15:57:06;16.70;99.90
6843;DHT22;3460;52.028;8.916;2023-05-07T15:59:33;16.60;99.90
6843;DHT22;3460;52.028;8.916;2023-05-07T16:02:01;16.60;99.90
6843;DHT22;3460;52.028;8.916;2023-05-07T16:04:28;16.50;99.90
6843;DHT22;3460;52.028;8.916;2023-05-07T16:06:55;16.40;99.90
6843;DHT22;3460;52.028;8.916;2023-05-07T16:09:24;16.50;99.90
6843;DHT22;3460;52.028;8.916;2023-05-07T16:11:52;16.30;99.90